Time;durP1;ratioP1;P1;durP2;ratioP2;P2;SDS_P1;SDS_P2;PMS_P1;PMS_P2;Temp;Humidity;BMP_temperature;BMP_pressure;BME280_temperature;BME280_humidity;BME280_pressure;Samples;Min_cycle;Max_cycle;Signal;HPM_P1;HPM_P2
2022/06/24 00:01:16;;;;;;;3.80;1.30;;;26.70;52.10;;;;;;5050856;28;45397;-88
2022/06/24 00:03:45;;;;;;;3.60;0.90;;;26.70;51.70;;;;;;5050555;28;45261;-88
2022/06/24 00:06:15;;;;;;;3.13;0.95;;;26.70;51.50;;;;;;5050304;28;45227;-88
2022/06/24 00:08:50;;;;;;;2.33;1.20;;;26.70;51.70;;;;;;5050616;28;45335;-88
2022/06/24 00:11:17;;;;;;;2.00;1.30;;;26.60;51.70;;;;;;5048340;28;45332;-88
2022/06/24 00:13:45;;;;;;;2.17;1.10;;;26.60;51.60;;;;;;5050256;28;45507;-88
2022/06/24 00:16:12;;;;;;;2.33;1.20;;;26.60;51.10;;;;;;5047641;28;45260;-89
2022/06/24 00:18:39;;;;;;;2.30;1.10;;;26.60;50.80;;;;;;5050263;28;45186;-87
2022/06/24 00:21:12;;;;;;;2.45;1.10;;;26.60;51.20;;;;;;5049666;28;45456;-87
2022/06/24 00:23:40;;;;;;;1.85;1.15;;;26.50;51.00;;;;;;5046968;28;45681;-87
2022/06/24 00:26:07;;;;;;;2.13;1.10;;;26.50;51.70;;;;;;5047810;28;45238;-87
2022/06/24 00:28:34;;;;;;;3.40;1.40;;;26.50;50.80;;;;;;5050175;28;45361;-87
2022/06/24 00:31:03;;;;;;;4.43;1.30;;;26.50;51.20;;;;;;5050705;28;45262;-88
2022/06/24 00:33:33;;;;;;;4.45;1.33;;;26.50;50.80;;;;;;5047418;28;45405;-87
2022/06/24 00:36:00;;;;;;;2.55;0.88;;;26.50;51.10;;;;;;5047562;28;45264;-88
2022/06/24 00:38:28;;;;;;;2.08;1.13;;;26.50;51.00;;;;;;5049523;28;45215;-88
2022/06/24 00:40:57;;;;;;;3.65;1.20;;;26.50;51.00;;;;;;5050256;28;45120;-89
2022/06/24 00:43:27;;;;;;;3.22;1.40;;;26.40;50.60;;;;;;5046957;28;46271;-87
2022/06/24 00:45:59;;;;;;;2.33;1.20;;;26.40;50.60;;;;;;5047281;28;45134;-88
2022/06/24 00:48:28;;;;;;;3.67;1.50;;;26.40;51.00;;;;;;5050056;28;45287;-86
2022/06/24 00:50:55;;;;;;;1.50;1.33;;;26.40;50.80;;;;;;5050033;28;45434;-86
2022/06/24 00:53:22;;;;;;;2.50;1.40;;;26.40;50.70;;;;;;5049529;28;46343;-86
2022/06/24 00:55:49;;;;;;;2.65;1.52;;;26.40;50.70;;;;;;5049849;28;45310;-88
2022/06/24 00:58:17;;;;;;;4.57;1.30;;;26.40;50.80;;;;;;5049458;28;45282;-88
2022/06/24 01:00:44;;;;;;;3.45;1.50;;;26.40;50.90;;;;;;5049388;28;45185;-89
2022/06/24 01:03:14;;;;;;;6.15;1.38;;;26.40;51.00;;;;;;5046435;28;45172;-87
2022/06/24 01:05:43;;;;;;;1.90;1.25;;;26.40;51.00;;;;;;5049292;28;45245;-87
2022/06/24 01:08:10;;;;;;;2.20;1.42;;;26.40;50.90;;;;;;5048946;28;45186;-88
2022/06/24 01:10:38;;;;;;;2.28;1.27;;;26.30;50.80;;;;;;5049283;28;45452;-88
2022/06/24 01:13:08;;;;;;;1.25;1.13;;;26.30;50.80;;;;;;5048473;28;46708;-89
2022/06/24 01:15:35;;;;;;;2.33;1.23;;;26.30;50.90;;;;;;5048818;28;45187;-88
2022/06/24 01:18:02;;;;;;;1.85;1.00;;;26.30;50.90;;;;;;5046640;28;45334;-89
2022/06/24 01:20:29;;;;;;;2.30;1.30;;;26.30;50.80;;;;;;5049132;28;45307;-88
2022/06/24 01:22:57;;;;;;;1.58;1.25;;;26.30;50.90;;;;;;5048699;28;45495;-88
2022/06/24 01:25:24;;;;;;;2.55;1.27;;;26.30;51.10;;;;;;5046730;28;45190;-89
2022/06/24 01:27:51;;;;;;;2.55;1.45;;;26.20;50.90;;;;;;5049499;28;45250;-88
2022/06/24 01:30:18;;;;;;;3.13;1.35;;;26.20;50.70;;;;;;5049315;28;45372;-89
2022/06/24 01:32:45;;;;;;;3.75;1.50;;;26.20;51.00;;;;;;5048915;28;45214;-89
2022/06/24 01:35:12;;;;;;;4.95;1.52;;;26.20;51.00;;;;;;5049468;28;44701;-89
2022/06/24 01:37:38;;;;;;;8.90;1.85;;;26.20;51.00;;;;;;5046539;28;45170;-89
2022/06/24 01:40:08;;;;;;;2.40;1.20;;;26.20;50.80;;;;;;5049179;28;45505;-88
2022/06/24 01:42:35;;;;;;;2.58;1.20;;;26.20;51.10;;;;;;5048811;28;45293;-88
2022/06/24 01:45:08;;;;;;;4.28;1.40;;;26.20;50.90;;;;;;5048437;28;45190;-90
2022/06/24 01:47:35;;;;;;;2.55;1.45;;;26.10;50.80;;;;;;5049057;28;45427;-89
2022/06/24 01:50:02;;;;;;;7.68;1.40;;;26.10;50.70;;;;;;5048934;28;45286;-88
2022/06/24 01:52:29;;;;;;;3.25;1.23;;;26.10;50.80;;;;;;5048480;28;45299;-89
2022/06/24 01:54:55;;;;;;;1.55;1.20;;;26.10;51.00;;;;;;5048598;28;45171;-88
2022/06/24 01:57:25;;;;;;;2.22;1.10;;;26.10;50.80;;;;;;5048015;28;45254;-88
2022/06/24 01:59:52;;;;;;;2.47;1.33;;;26.10;51.20;;;;;;5049134;28;45269;-89
2022/06/24 02:02:19;;;;;;;3.50;1.30;;;26.10;50.80;;;;;;5048173;28;46152;-88
2022/06/24 02:04:47;;;;;;;1.67;1.45;;;26.00;51.10;;;;;;5048214;28;45180;-89
2022/06/24 02:07:14;;;;;;;2.03;1.15;;;26.10;51.10;;;;;;5048738;28;45289;-89
2022/06/24 02:15:08;;;;;;;2.40;1.02;;;26.00;51.20;;;;;;5048059;28;45190;-89
2022/06/24 02:17:35;;;;;;;3.13;1.08;;;26.00;51.10;;;;;;5048765;28;44740;-88
2022/06/24 02:20:01;;;;;;;3.20;1.30;;;26.00;51.30;;;;;;5048650;28;45258;-89
2022/06/24 02:22:28;;;;;;;2.55;1.42;;;26.00;51.20;;;;;;5048840;28;46806;-89
2022/06/24 02:24:56;;;;;;;3.17;1.27;;;25.90;51.10;;;;;;5048418;28;45222;-88
2022/06/24 02:27:22;;;;;;;2.33;1.15;;;25.90;51.10;;;;;;5050270;28;45257;-89
2022/06/24 02:29:49;;;;;;;3.25;1.25;;;25.90;51.70;;;;;;5050936;28;45333;-88
2022/06/24 02:32:18;;;;;;;1.85;0.93;;;25.90;51.10;;;;;;5052370;28;45595;-88
2022/06/24 02:34:45;;;;;;;3.00;1.23;;;25.90;51.10;;;;;;5067621;28;44634;-89
2022/06/24 02:37:11;;;;;;;3.60;1.20;;;25.90;51.20;;;;;;5069557;28;44712;-88
2022/06/24 02:39:38;;;;;;;2.05;1.00;;;25.90;51.10;;;;;;5069720;28;44733;-89
2022/06/24 02:42:06;;;;;;;3.38;1.23;;;25.90;51.20;;;;;;5071781;28;45489;-86
2022/06/24 02:44:33;;;;;;;1.63;1.27;;;25.90;51.10;;;;;;5071066;28;44577;-86
2022/06/24 02:47:00;;;;;;;2.70;1.30;;;25.80;51.00;;;;;;5069017;28;45278;-90
2022/06/24 02:49:28;;;;;;;1.05;1.00;;;25.80;51.90;;;;;;5081813;28;44978;-87
2022/06/24 02:51:55;;;;;;;3.70;1.10;;;25.80;51.10;;;;;;5089144;28;45616;-88
2022/06/24 02:54:21;;;;;;;2.75;1.20;;;25.80;51.10;;;;;;5091758;28;44794;-89
2022/06/24 02:56:48;;;;;;;2.60;1.40;;;25.80;51.30;;;;;;5092025;28;44693;-89
2022/06/24 02:59:15;;;;;;;2.15;1.30;;;25.80;51.30;;;;;;5092303;28;44806;-89
2022/06/24 03:01:42;;;;;;;1.73;1.20;;;25.80;51.20;;;;;;5091864;28;45630;-88
2022/06/24 03:04:09;;;;;;;2.25;1.20;;;25.70;51.10;;;;;;5089365;28;44742;-89
2022/06/24 03:06:37;;;;;;;1.77;1.20;;;25.70;51.80;;;;;;5091665;28;44727;-87
2022/06/24 03:09:04;;;;;;;1.63;1.40;;;25.70;51.00;;;;;;5092127;28;44707;-88
2022/06/24 03:11:31;;;;;;;2.83;1.20;;;25.70;51.10;;;;;;5091648;28;45148;-88
2022/06/24 03:13:58;;;;;;;2.20;1.20;;;25.70;51.90;;;;;;5091544;28;45146;-86
2022/06/24 03:16:24;;;;;;;1.58;1.13;;;25.70;51.70;;;;;;5089308;28;44696;-87
2022/06/24 03:18:51;;;;;;;1.58;1.25;;;25.60;51.10;;;;;;5082775;28;44815;-89
2022/06/24 03:21:18;;;;;;;2.53;1.10;;;25.60;51.20;;;;;;5069254;28;45595;-89
2022/06/24 03:23:46;;;;;;;1.85;1.27;;;25.60;51.20;;;;;;5068866;28;45371;-87
2022/06/24 03:26:13;;;;;;;1.42;1.20;;;25.60;51.10;;;;;;5068355;28;45389;-89
2022/06/24 03:28:40;;;;;;;2.33;1.13;;;25.60;51.10;;;;;;5068014;28;45443;-89
2022/06/24 03:31:07;;;;;;;1.92;1.00;;;25.60;51.10;;;;;;5067729;28;45300;-89
2022/06/24 03:33:34;;;;;;;2.38;1.10;;;25.60;51.10;;;;;;5065484;28;45201;-88
2022/06/24 03:36:08;;;;;;;1.50;1.20;;;25.60;51.90;;;;;;5067791;28;45151;-88
2022/06/24 03:38:35;;;;;;;1.60;1.40;;;25.60;51.20;;;;;;5067682;28;45181;-88
2022/06/24 03:41:03;;;;;;;2.25;1.10;;;25.50;51.10;;;;;;5067759;28;45414;-89
2022/06/24 03:43:30;;;;;;;2.90;1.10;;;25.50;51.10;;;;;;5064819;28;45311;-88
2022/06/24 03:46:01;;;;;;;2.15;1.20;;;25.50;51.10;;;;;;5065289;28;45266;-89
2022/06/24 03:48:28;;;;;;;2.72;1.58;;;25.50;51.10;;;;;;5064936;28;45182;-90
2022/06/24 03:50:55;;;;;;;2.42;1.10;;;25.50;51.70;;;;;;5067251;28;46604;-90
2022/06/24 03:53:22;;;;;;;2.08;1.20;;;25.50;51.10;;;;;;5064800;28;45322;-89
2022/06/24 03:55:49;;;;;;;1.90;1.10;;;25.50;51.10;;;;;;5067400;28;45201;-88
2022/06/24 03:58:17;;;;;;;3.63;1.17;;;25.50;51.10;;;;;;5064896;28;45194;-88
2022/06/24 04:00:44;;;;;;;2.42;0.90;;;25.50;51.10;;;;;;5064452;28;46562;-87
2022/06/24 04:03:11;;;;;;;2.00;1.10;;;25.50;51.10;;;;;;5067422;28;45328;-87
2022/06/24 04:05:38;;;;;;;2.58;1.40;;;25.50;51.10;;;;;;5063960;28;44726;-87
2022/06/24 04:08:05;;;;;;;1.55;1.40;;;25.40;51.10;;;;;;5064157;28;45194;-87
2022/06/24 04:10:32;;;;;;;2.10;1.20;;;25.40;51.20;;;;;;5066679;28;45751;-88
2022/06/24 04:12:59;;;;;;;3.50;1.30;;;25.40;51.10;;;;;;5064599;28;45359;-88
2022/06/24 04:15:27;;;;;;;1.88;1.25;;;25.40;51.10;;;;;;5067390;28;45222;-88
2022/06/24 04:17:55;;;;;;;2.13;1.25;;;25.40;51.10;;;;;;5067142;28;44818;-87
2022/06/24 04:20:22;;;;;;;2.70;1.23;;;25.40;51.10;;;;;;5071892;28;45540;-88
2022/06/24 04:22:48;;;;;;;1.67;1.30;;;25.40;51.10;;;;;;5072447;28;45239;-88
2022/06/24 04:25:15;;;;;;;1.55;1.33;;;25.30;51.00;;;;;;5070724;28;45205;-88
2022/06/24 04:27:42;;;;;;;2.22;1.17;;;25.30;51.00;;;;;;5068229;28;45412;-88
2022/06/24 04:30:10;;;;;;;2.30;1.15;;;25.30;51.00;;;;;;5070326;28;46638;-88
2022/06/24 04:32:38;;;;;;;1.17;1.08;;;25.30;51.10;;;;;;5069998;28;45178;-89
2022/06/24 04:35:07;;;;;;;1.52;1.10;;;25.30;51.10;;;;;;5070481;28;45329;-89
2022/06/24 04:37:35;;;;;;;1.50;1.23;;;25.30;51.10;;;;;;5068735;28;45306;-87
2022/06/24 04:40:02;;;;;;;1.42;1.10;;;25.30;51.00;;;;;;5070774;28;45244;-88
2022/06/24 04:42:29;;;;;;;1.55;1.00;;;25.30;51.00;;;;;;5070446;28;45393;-88
2022/06/24 04:44:56;;;;;;;1.33;1.10;;;25.30;51.00;;;;;;5070464;28;45304;-88
2022/06/24 04:47:23;;;;;;;1.00;1.00;;;25.20;50.90;;;;;;5070701;28;45459;-89
2022/06/24 04:49:52;;;;;;;1.00;0.90;;;25.20;51.00;;;;;;5070637;28;45474;-88
2022/06/24 04:52:19;;;;;;;1.35;1.10;;;25.30;50.90;;;;;;5067760;28;45217;-88
2022/06/24 04:54:45;;;;;;;2.03;1.50;;;25.30;51.00;;;;;;5070422;28;45202;-90
2022/06/24 04:57:13;;;;;;;2.30;1.10;;;25.30;51.00;;;;;;5069850;28;45464;-88
2022/06/24 04:59:40;;;;;;;1.40;1.05;;;25.20;50.80;;;;;;5070020;28;45763;-88
2022/06/24 05:02:07;;;;;;;1.17;0.90;;;25.20;50.90;;;;;;5070749;28;45187;-88
2022/06/24 05:04:33;;;;;;;2.80;1.40;;;25.20;50.90;;;;;;5070214;28;45316;-88
2022/06/24 05:07:02;;;;;;;1.10;0.98;;;25.20;51.10;;;;;;5070225;28;45395;-89
2022/06/24 05:09:29;;;;;;;3.05;1.20;;;25.20;51.10;;;;;;5067165;28;45439;-89
2022/06/24 05:11:55;;;;;;;1.50;1.00;;;25.20;51.00;;;;;;5070278;28;45256;-90
2022/06/24 05:14:22;;;;;;;1.98;1.20;;;25.20;51.00;;;;;;5069529;28;45194;-89
2022/06/24 05:16:49;;;;;;;2.22;1.00;;;25.20;50.90;;;;;;5069894;28;45669;-89
2022/06/24 05:19:16;;;;;;;2.40;1.25;;;25.20;50.90;;;;;;5070387;28;46827;-89
2022/06/24 05:21:43;;;;;;;1.35;1.00;;;25.20;50.90;;;;;;5069772;28;44771;-89
2022/06/24 05:24:11;;;;;;;1.10;1.00;;;25.20;51.50;;;;;;5070447;28;45196;-90
2022/06/24 05:26:38;;;;;;;1.33;1.23;;;25.20;50.90;;;;;;5070696;28;45229;-89
2022/06/24 05:29:05;;;;;;;2.67;1.10;;;25.20;50.90;;;;;;5069819;28;45284;-90
2022/06/24 05:31:32;;;;;;;1.90;1.02;;;25.20;50.90;;;;;;5065863;28;45280;-89
2022/06/24 05:33:58;;;;;;;1.98;1.10;;;25.20;51.00;;;;;;5070265;28;45380;-89
2022/06/24 05:36:25;;;;;;;1.40;1.20;;;25.20;51.10;;;;;;5067845;28;45432;-90
2022/06/24 05:38:52;;;;;;;1.45;1.10;;;25.20;50.90;;;;;;5067231;28;45613;-88
2022/06/24 05:41:21;;;;;;;1.50;1.13;;;25.20;51.00;;;;;;5070092;28;45206;-88
2022/06/24 05:43:48;;;;;;;1.15;1.00;;;25.20;51.00;;;;;;5070709;28;45217;-90
2022/06/24 05:46:14;;;;;;;1.25;1.02;;;25.20;51.00;;;;;;5070328;28;45329;-89
2022/06/24 05:48:41;;;;;;;2.40;1.20;;;25.20;51.00;;;;;;5067128;28;45373;-88
2022/06/24 05:51:09;;;;;;;1.75;1.10;;;25.20;50.90;;;;;;5069235;28;45277;-88
2022/06/24 05:56:22;;;;;;;1.63;1.05;;;25.20;51.00;;;;;;5067328;28;44912;-89
2022/06/24 05:58:49;;;;;;;1.92;1.10;;;25.20;50.90;;;;;;5068229;28;45511;-89
2022/06/24 06:01:16;;;;;;;1.40;1.30;;;25.20;51.00;;;;;;5069531;28;45245;-89
2022/06/24 06:03:43;;;;;;;1.17;1.00;;;25.20;51.00;;;;;;5067239;28;45247;-89
2022/06/24 06:06:10;;;;;;;2.47;1.33;;;25.20;50.90;;;;;;5066972;28;44778;-89
2022/06/24 06:08:37;;;;;;;1.70;1.17;;;25.20;50.80;;;;;;5070699;28;46830;-88
2022/06/24 06:11:11;;;;;;;1.75;1.40;;;25.20;50.80;;;;;;5070242;28;45340;-89
2022/06/24 06:13:39;;;;;;;3.58;1.40;;;25.20;50.80;;;;;;5070035;28;45256;-87
2022/06/24 06:16:11;;;;;;;1.40;1.30;;;25.20;50.80;;;;;;5068562;28;45289;-90
2022/06/24 06:18:38;;;;;;;2.65;1.10;;;25.30;50.80;;;;;;5065873;28;45260;-89
2022/06/24 06:21:06;;;;;;;1.45;1.20;;;25.30;50.80;;;;;;5068790;28;45301;-89
2022/06/24 06:23:33;;;;;;;2.65;1.48;;;25.30;50.70;;;;;;5069140;28;45293;-88
2022/06/24 06:26:01;;;;;;;1.50;1.40;;;25.40;50.70;;;;;;5067060;28;44711;-89
2022/06/24 06:28:28;;;;;;;1.48;1.38;;;25.30;50.60;;;;;;5068898;28;45440;-88
2022/06/24 06:30:56;;;;;;;1.42;1.30;;;25.40;50.60;;;;;;5068605;28;45351;-89
2022/06/24 06:33:23;;;;;;;1.65;1.10;;;25.30;50.50;;;;;;5069392;28;45189;-90
2022/06/24 06:35:50;;;;;;;2.05;1.30;;;25.30;50.60;;;;;;5069047;28;45115;-88
2022/06/24 06:38:17;;;;;;;1.85;1.50;;;25.30;50.70;;;;;;5068509;28;45927;-90
2022/06/24 06:40:44;;;;;;;2.05;1.27;;;25.30;50.60;;;;;;5065888;28;45342;-88
2022/06/24 06:43:11;;;;;;;1.90;1.33;;;25.30;51.30;;;;;;5068622;28;44796;-89
2022/06/24 06:45:38;;;;;;;3.72;1.52;;;25.30;50.70;;;;;;5067936;28;45425;-86
2022/06/24 06:48:08;;;;;;;2.42;1.38;;;25.30;50.70;;;;;;5067873;28;45428;-90
2022/06/24 06:50:34;;;;;;;1.75;1.27;;;25.30;50.80;;;;;;5067929;28;45312;-88
2022/06/24 06:53:02;;;;;;;3.28;1.70;;;25.30;50.80;;;;;;5059429;28;44866;-90
2022/06/24 06:55:28;;;;;;;2.20;1.50;;;25.30;50.80;;;;;;5048193;28;45618;-91
2022/06/24 06:57:55;;;;;;;1.63;1.52;;;25.30;50.80;;;;;;5045074;28;45672;-90
2022/06/24 07:00:22;;;;;;;2.72;1.45;;;25.30;50.80;;;;;;5047576;28;45300;-88
2022/06/24 07:02:49;;;;;;;2.10;1.52;;;25.40;50.80;;;;;;5048343;28;45312;-89
2022/06/24 07:05:17;;;;;;;3.05;1.38;;;25.30;50.80;;;;;;5048266;28;45388;-89
2022/06/24 07:07:44;;;;;;;2.25;1.50;;;25.40;50.80;;;;;;5047741;28;45466;-91
2022/06/24 07:10:11;;;;;;;2.38;1.58;;;25.40;50.70;;;;;;5045247;28;45292;-89
2022/06/24 07:12:38;;;;;;;3.63;1.67;;;25.40;50.70;;;;;;5047864;28;45298;-89
2022/06/24 07:15:06;;;;;;;1.90;1.40;;;25.50;50.60;;;;;;5045520;28;44724;-91
2022/06/24 07:17:33;;;;;;;1.85;1.48;;;25.50;50.60;;;;;;5045084;28;45459;-89
2022/06/24 07:20:00;;;;;;;3.90;1.58;;;25.50;50.50;;;;;;5045149;28;45238;-89
2022/06/24 07:22:28;;;;;;;2.90;1.80;;;25.50;50.60;;;;;;5048262;28;44766;-89
2022/06/24 07:24:55;;;;;;;3.40;1.85;;;25.50;50.40;;;;;;5045515;28;45261;-89
2022/06/24 07:27:22;;;;;;;4.70;2.25;;;25.50;50.60;;;;;;5044964;28;46819;-92
2022/06/24 07:29:48;;;;;;;3.35;2.45;;;25.50;50.60;;;;;;5047280;28;45202;-90
2022/06/24 07:32:15;;;;;;;5.38;2.20;;;25.60;52.30;;;;;;5047468;28;45194;-89
2022/06/24 07:34:42;;;;;;;3.42;2.40;;;25.50;52.90;;;;;;5046941;28;45651;-89
2022/06/24 07:37:09;;;;;;;5.82;2.17;;;25.50;53.00;;;;;;5044629;28;45422;-90
2022/06/24 07:39:38;;;;;;;6.97;1.90;;;25.50;53.40;;;;;;5044456;28;45328;-88
2022/06/24 07:42:06;;;;;;;7.25;1.80;;;25.50;53.50;;;;;;5047608;28;45314;-89
2022/06/24 07:44:33;;;;;;;4.10;1.67;;;25.50;53.40;;;;;;5047148;28;45330;-92
2022/06/24 07:46:59;;;;;;;2.35;1.55;;;25.50;53.10;;;;;;5047589;28;47278;-89
2022/06/24 07:49:26;;;;;;;4.97;1.65;;;25.60;53.00;;;;;;5046040;28;45464;-90
2022/06/24 07:51:54;;;;;;;4.68;1.90;;;25.60;53.00;;;;;;5047360;28;45209;-90
2022/06/24 07:54:21;;;;;;;6.25;2.03;;;25.60;53.10;;;;;;5048568;28;44750;-88
2022/06/24 07:56:57;;;;;;;5.35;1.85;;;25.70;53.20;;;;;;5050479;28;45419;-91
2022/06/24 07:59:25;;;;;;;5.63;1.95;;;25.70;53.30;;;;;;5050431;28;45256;-91
2022/06/24 08:01:53;;;;;;;4.75;1.88;;;25.70;53.50;;;;;;5050769;28;45262;-90
2022/06/24 08:04:20;;;;;;;3.47;2.20;;;25.70;53.10;;;;;;5051102;28;45258;-91
2022/06/24 08:06:49;;;;;;;5.38;2.03;;;25.70;53.70;;;;;;5047650;28;45440;-88
2022/06/24 08:09:17;;;;;;;8.60;1.67;;;25.70;53.90;;;;;;5050468;28;45322;-87
2022/06/24 08:11:43;;;;;;;2.88;1.33;;;25.70;54.40;;;;;;5050044;28;45203;-88
2022/06/24 08:14:12;;;;;;;4.95;2.05;;;25.80;53.30;;;;;;5048135;28;44723;-89
2022/06/24 08:16:39;;;;;;;4.15;1.42;;;25.80;53.30;;;;;;5047696;28;46557;-88
2022/06/24 08:19:06;;;;;;;3.92;1.77;;;25.90;52.90;;;;;;5050251;28;45241;-87
2022/06/24 08:21:33;;;;;;;3.75;1.60;;;25.90;53.20;;;;;;5049883;28;45373;-88
2022/06/24 08:24:00;;;;;;;3.92;1.70;;;25.90;53.20;;;;;;5047992;28;45207;-89
2022/06/24 08:26:27;;;;;;;4.35;1.55;;;25.90;53.00;;;;;;5047702;28;45377;-89
2022/06/24 08:28:54;;;;;;;5.13;2.30;;;26.00;52.90;;;;;;5042119;28;45365;-89
2022/06/24 08:31:23;;;;;;;4.45;1.75;;;26.00;52.70;;;;;;5050135;28;45351;-89
2022/06/24 08:33:50;;;;;;;3.38;1.30;;;26.00;52.50;;;;;;5050192;28;45244;-88
2022/06/24 08:36:16;;;;;;;1.77;1.30;;;26.00;52.40;;;;;;5049876;28;48570;-88
2022/06/24 08:38:43;;;;;;;2.38;1.40;;;26.00;52.20;;;;;;5039717;28;45385;-87
2022/06/24 08:41:10;;;;;;;1.70;1.35;;;26.10;52.30;;;;;;5049814;28;45297;-88
2022/06/24 08:43:37;;;;;;;1.58;1.10;;;26.10;52.30;;;;;;5049932;28;45582;-88
2022/06/24 08:46:04;;;;;;;4.03;1.40;;;26.10;52.10;;;;;;5049485;28;47655;-88
2022/06/24 08:48:33;;;;;;;1.65;1.20;;;26.20;52.10;;;;;;5050358;28;45194;-88
2022/06/24 08:51:00;;;;;;;1.85;1.10;;;26.20;51.70;;;;;;5069681;28;45415;-88
2022/06/24 08:53:28;;;;;;;1.55;1.13;;;26.30;51.80;;;;;;5070133;28;45283;-89
2022/06/24 08:55:55;;;;;;;2.80;1.27;;;26.30;52.30;;;;;;5069499;28;46753;-88
2022/06/24 08:58:22;;;;;;;2.47;1.17;;;26.30;51.20;;;;;;5069747;28;45259;-90
2022/06/24 09:00:49;;;;;;;1.73;1.58;;;26.30;50.90;;;;;;5069429;28;45322;-90
2022/06/24 09:03:16;;;;;;;4.03;2.05;;;26.30;50.80;;;;;;5069569;28;45447;-88
2022/06/24 09:05:44;;;;;;;4.15;2.08;;;26.40;51.00;;;;;;5069658;28;45430;-88
2022/06/24 09:08:13;;;;;;;3.05;2.15;;;26.40;50.90;;;;;;5069427;28;45265;-88
2022/06/24 09:10:40;;;;;;;2.63;1.70;;;26.40;50.90;;;;;;5069872;28;45489;-86
2022/06/24 09:13:08;;;;;;;3.38;2.70;;;26.40;50.60;;;;;;5069792;28;45495;-88
2022/06/24 09:15:34;;;;;;;3.20;2.70;;;26.50;51.40;;;;;;5070413;28;47366;-88
2022/06/24 09:18:01;;;;;;;4.38;2.50;;;26.50;51.30;;;;;;5070456;28;45194;-88
2022/06/24 09:20:29;;;;;;;4.53;2.35;;;26.50;50.70;;;;;;5070718;28;45278;-88
2022/06/24 09:23:04;;;;;;;4.00;2.40;;;26.50;50.80;;;;;;5067022;28;45278;-88
2022/06/24 09:25:42;;;;;;;2.47;1.65;;;26.60;50.70;;;;;;5069280;28;45304;-89
2022/06/24 09:28:10;;;;;;;2.97;1.83;;;26.60;50.30;;;;;;5069567;28;45237;-89
2022/06/24 09:30:37;;;;;;;3.03;1.90;;;26.60;51.10;;;;;;5069393;28;44655;-89
2022/06/24 09:33:04;;;;;;;4.10;1.80;;;26.60;50.50;;;;;;5070271;28;45339;-91
2022/06/24 09:35:31;;;;;;;4.05;1.60;;;26.60;50.40;;;;;;5067143;28;45475;-90
2022/06/24 09:37:58;;;;;;;4.15;1.98;;;26.70;50.40;;;;;;5069451;28;45316;-90
2022/06/24 09:40:27;;;;;;;2.50;1.40;;;26.70;50.50;;;;;;5069708;28;45235;-90
2022/06/24 09:42:55;;;;;;;2.80;1.52;;;26.70;50.40;;;;;;5067608;28;45284;-90
2022/06/24 09:45:22;;;;;;;3.40;1.70;;;26.70;50.30;;;;;;5067161;28;45431;-91
2022/06/24 09:47:49;;;;;;;4.20;1.75;;;26.80;50.50;;;;;;5071108;28;45182;-89
2022/06/24 09:50:16;;;;;;;3.50;1.90;;;26.80;50.20;;;;;;5069589;28;45243;-88
2022/06/24 09:52:43;;;;;;;3.10;1.80;;;26.80;50.50;;;;;;5069638;28;45171;-89
2022/06/24 09:55:10;;;;;;;4.70;1.90;;;26.80;50.20;;;;;;5069171;28;46642;-88
2022/06/24 09:57:39;;;;;;;3.05;1.80;;;26.80;50.40;;;;;;5066762;28;45306;-89
2022/06/24 10:02:52;;;;;;;4.82;1.65;;;26.80;50.00;;;;;;5069532;28;45223;-88
2022/06/24 10:05:19;;;;;;;3.33;1.50;;;26.80;50.00;;;;;;5069065;28;46632;-90
2022/06/24 10:07:47;;;;;;;4.35;1.30;;;26.80;50.10;;;;;;5071034;28;45265;-89
2022/06/24 10:10:14;;;;;;;1.92;1.20;;;26.80;50.20;;;;;;5070769;28;45254;-90
2022/06/24 10:12:46;;;;;;;4.63;1.50;;;26.70;50.30;;;;;;5067649;28;45270;-88
2022/06/24 10:15:14;;;;;;;2.17;1.20;;;26.80;50.40;;;;;;5069973;28;46430;-88
2022/06/24 10:17:42;;;;;;;1.85;1.50;;;26.80;50.20;;;;;;5070300;28;45217;-89
2022/06/24 10:20:10;;;;;;;1.73;1.10;;;26.80;49.90;;;;;;5070568;28;45020;-89
2022/06/24 10:22:37;;;;;;;2.40;1.13;;;26.80;49.90;;;;;;5070503;28;45288;-89
2022/06/24 10:25:04;;;;;;;2.40;1.20;;;26.80;49.70;;;;;;5070638;28;45230;-90
2022/06/24 10:28:07;;;;;;;3.88;1.20;;;26.70;49.70;;;;;;5070170;28;45165;-90
2022/06/24 10:30:56;;;;;;;4.25;1.20;;;26.80;49.70;;;;;;5070510;28;45270;-90
2022/06/24 10:33:23;;;;;;;2.33;1.00;;;26.80;49.70;;;;;;5067403;28;45123;-90
2022/06/24 10:35:58;;;;;;;3.22;1.40;;;26.70;49.80;;;;;;5069940;28;47494;-87
2022/06/24 10:38:28;;;;;;;2.35;1.10;;;26.70;50.30;;;;;;5069356;28;45351;-88
2022/06/24 10:40:55;;;;;;;1.88;1.30;;;26.70;50.40;;;;;;5068557;28;45188;-88
2022/06/24 10:43:40;;;;;;;2.08;1.45;;;26.60;50.80;;;;;;5069503;28;45276;-86
2022/06/24 10:46:17;;;;;;;2.40;1.30;;;26.60;50.90;;;;;;5069278;28;47807;-88
2022/06/24 10:49:03;;;;;;;1.58;1.20;;;26.60;50.70;;;;;;5068970;28;45528;-86
2022/06/24 10:51:32;;;;;;;4.03;1.30;;;26.60;50.90;;;;;;5069400;28;45343;-87
2022/06/24 10:54:17;;;;;;;4.50;1.30;;;26.60;50.50;;;;;;5069758;28;45449;-88
2022/06/24 10:56:47;;;;;;;2.20;1.20;;;26.60;50.50;;;;;;5068574;28;45430;-87
2022/06/24 10:59:18;;;;;;;4.15;1.20;;;26.60;50.80;;;;;;5068845;28;45424;-86
2022/06/24 11:01:45;;;;;;;1.83;1.38;;;26.60;51.20;;;;;;5069207;28;45185;-88
2022/06/24 11:04:14;;;;;;;1.95;1.38;;;26.60;51.10;;;;;;5069081;28;45189;-87
2022/06/24 11:06:41;;;;;;;3.83;1.30;;;26.60;51.00;;;;;;5069066;28;47190;-88
2022/06/24 11:09:08;;;;;;;2.70;1.00;;;26.60;51.10;;;;;;5069175;28;45399;-88
2022/06/24 11:11:35;;;;;;;2.70;1.00;;;26.60;51.10;;;;;;5069713;28;44684;-89
2022/06/24 11:14:26;;;;;;;2.47;1.38;;;26.50;51.40;;;;;;5069756;28;45250;-88
2022/06/24 11:16:52;;;;;;;1.20;1.10;;;26.50;51.80;;;;;;5068933;28;47676;-87
2022/06/24 11:19:19;;;;;;;1.67;1.08;;;26.50;51.90;;;;;;5066022;28;45190;-86
2022/06/24 11:21:48;;;;;;;1.75;1.10;;;26.40;51.50;;;;;;5068799;28;45201;-88
2022/06/24 11:24:15;;;;;;;1.20;1.10;;;26.40;51.30;;;;;;5070125;28;45313;-88
2022/06/24 11:26:42;;;;;;;2.97;1.00;;;26.40;51.30;;;;;;5065997;28;46828;-86
2022/06/24 11:29:09;;;;;;;2.55;1.08;;;26.40;52.00;;;;;;5066817;28;45425;-88
2022/06/24 11:31:38;;;;;;;4.72;1.20;;;26.40;51.10;;;;;;5072169;28;45182;-87
2022/06/24 11:34:11;;;;;;;1.15;0.90;;;26.40;51.10;;;;;;5073209;28;45280;-87
2022/06/24 11:36:39;;;;;;;4.38;1.10;;;26.40;50.90;;;;;;5070088;28;45633;-87
2022/06/24 11:39:06;;;;;;;0.80;0.80;;;26.30;51.20;;;;;;5069155;28;45404;-86
2022/06/24 11:41:34;;;;;;;2.10;0.90;;;26.30;51.30;;;;;;5071523;28;45313;-87
2022/06/24 11:44:01;;;;;;;1.77;1.10;;;26.30;51.50;;;;;;5072091;28;45290;-87
2022/06/24 11:46:28;;;;;;;1.25;0.90;;;26.20;51.30;;;;;;5069168;28;45352;-87
2022/06/24 11:49:07;;;;;;;1.50;1.02;;;26.20;51.40;;;;;;5071919;28;45431;-88
2022/06/24 11:51:34;;;;;;;3.50;0.88;;;26.20;51.50;;;;;;5071942;28;45305;-87
2022/06/24 11:54:02;;;;;;;1.48;1.00;;;26.20;51.70;;;;;;5069035;28;45177;-87
2022/06/24 11:56:29;;;;;;;1.77;0.80;;;26.20;52.60;;;;;;5070500;28;45482;-86
2022/06/24 11:58:56;;;;;;;2.97;1.10;;;26.10;53.40;;;;;;5071103;28;45297;-87
2022/06/24 12:01:24;;;;;;;1.92;1.00;;;26.10;53.30;;;;;;5068763;28;45259;-87
2022/06/24 12:03:51;;;;;;;1.15;1.05;;;26.10;53.80;;;;;;5071965;28;45326;-87
2022/06/24 12:06:19;;;;;;;0.90;0.90;;;26.00;54.20;;;;;;5067745;28;46511;-87
2022/06/24 12:08:46;;;;;;;1.55;0.85;;;26.00;54.40;;;;;;5068293;28;45360;-88
2022/06/24 12:11:16;;;;;;;2.78;0.85;;;26.00;54.40;;;;;;5058666;28;44802;-88
2022/06/24 12:13:43;;;;;;;0.77;0.77;;;26.00;54.30;;;;;;5051637;28;45424;-89
2022/06/24 12:16:15;;;;;;;2.17;0.80;;;26.00;54.20;;;;;;5050590;28;46410;-87
2022/06/24 12:18:42;;;;;;;1.00;0.93;;;26.00;53.90;;;;;;5052061;28;45175;-87
2022/06/24 12:21:10;;;;;;;3.40;1.20;;;26.00;54.80;;;;;;5051804;28;45274;-88
2022/06/24 12:23:39;;;;;;;1.73;0.90;;;25.90;54.60;;;;;;5051520;28;45280;-88
2022/06/24 12:26:07;;;;;;;0.98;0.90;;;25.90;54.60;;;;;;5047995;28;45659;-89
2022/06/24 12:28:34;;;;;;;2.97;1.27;;;25.90;55.50;;;;;;5050989;28;45234;-90
2022/06/24 12:31:03;;;;;;;2.33;0.95;;;25.80;55.00;;;;;;5048274;28;45296;-89
2022/06/24 12:33:30;;;;;;;1.75;0.90;;;25.80;55.30;;;;;;5049239;28;45214;-88
2022/06/24 12:36:11;;;;;;;1.30;1.02;;;25.80;55.60;;;;;;5051755;28;46673;-88
2022/06/24 12:38:40;;;;;;;2.13;1.30;;;25.80;55.60;;;;;;5052067;28;45366;-90
2022/06/24 12:41:12;;;;;;;3.30;1.15;;;25.90;55.20;;;;;;5052720;28;45194;-89
2022/06/24 12:43:52;;;;;;;3.72;1.13;;;25.80;55.50;;;;;;5074159;28;44866;-89
2022/06/24 12:46:18;;;;;;;4.13;1.00;;;25.90;55.50;;;;;;5073626;28;45555;-90
2022/06/24 12:51:30;;;;;;;1.17;0.75;;;25.80;55.10;;;;;;5074236;28;44731;-87
2022/06/24 12:53:58;;;;;;;1.15;1.00;;;25.80;54.70;;;;;;5073834;28;44767;-88
2022/06/24 12:56:25;;;;;;;3.53;0.98;;;25.90;54.60;;;;;;5071107;28;45450;-90
2022/06/24 12:58:52;;;;;;;2.42;0.90;;;25.90;54.80;;;;;;5070792;28;44755;-88
2022/06/24 13:01:19;;;;;;;1.48;1.10;;;25.90;54.00;;;;;;5071148;28;44716;-88
2022/06/24 13:03:46;;;;;;;2.00;1.00;;;25.90;53.60;;;;;;5071173;28;44846;-88
2022/06/24 13:06:13;;;;;;;3.40;0.90;;;26.00;53.40;;;;;;5073327;28;45480;-89